sensor_id;sensor_type;location;lat;lon;timestamp;temperature;humidity
26641;DHT22;14269;47.358;0.724;2024-03-06T00:12:33;16.0;42.0
26641;DHT22;14269;47.358;0.724;2024-03-06T00:15:06;15.0;42.0
26641;DHT22;14269;47.358;0.724;2024-03-06T00:17:37;15.0;42.0
26641;DHT22;14269;47.358;0.724;2024-03-06T00:20:11;15.0;42.0
26641;DHT22;14269;47.358;0.724;2024-03-06T00:22:50;15.0;42.0
26641;DHT22;14269;47.358;0.724;2024-03-06T00:25:22;15.0;42.0
26641;DHT22;14269;47.358;0.724;2024-03-06T00:27:54;15.0;42.0
26641;DHT22;14269;47.358;0.724;2024-03-06T00:30:26;15.0;42.0
26641;DHT22;14269;47.358;0.724;2024-03-06T00:32:58;15.0;42.0
26641;DHT22;14269;47.358;0.724;2024-03-06T00:35:39;15.0;41.0
26641;DHT22;14269;47.358;0.724;2024-03-06T00:38:10;15.0;42.0
26641;DHT22;14269;47.358;0.724;2024-03-06T00:40:42;15.0;42.0
26641;DHT22;14269;47.358;0.724;2024-03-06T00:43:14;15.0;42.0
26641;DHT22;14269;47.358;0.724;2024-03-06T01:04:38;15.0;41.0
26641;DHT22;14269;47.358;0.724;2024-03-06T01:07:09;15.0;41.0
26641;DHT22;14269;47.358;0.724;2024-03-06T01:09:41;15.0;41.0
26641;DHT22;14269;47.358;0.724;2024-03-06T01:12:13;15.0;41.0
26641;DHT22;14269;47.358;0.724;2024-03-06T01:21:13;15.0;41.0
26641;DHT22;14269;47.358;0.724;2024-03-06T01:23:50;15.0;41.0
26641;DHT22;14269;47.358;0.724;2024-03-06T01:26:22;15.0;41.0
26641;DHT22;14269;47.358;0.724;2024-03-06T01:28:54;15.0;41.0
26641;DHT22;14269;47.358;0.724;2024-03-06T01:31:25;15.0;41.0
26641;DHT22;14269;47.358;0.724;2024-03-06T01:33:57;15.0;41.0
26641;DHT22;14269;47.358;0.724;2024-03-06T01:36:29;15.0;41.0
26641;DHT22;14269;47.358;0.724;2024-03-06T01:39:00;15.0;41.0
26641;DHT22;14269;47.358;0.724;2024-03-06T01:41:32;15.0;41.0
26641;DHT22;14269;47.358;0.724;2024-03-06T01:44:04;15.0;41.0
26641;DHT22;14269;47.358;0.724;2024-03-06T01:46:35;15.0;42.0
26641;DHT22;14269;47.358;0.724;2024-03-06T01:49:07;14.0;43.0
26641;DHT22;14269;47.358;0.724;2024-03-06T01:51:52;14.0;43.0
26641;DHT22;14269;47.358;0.724;2024-03-06T01:54:32;15.0;43.0
26641;DHT22;14269;47.358;0.724;2024-03-06T01:57:13;14.0;42.0
26641;DHT22;14269;47.358;0.724;2024-03-06T01:59:54;14.0;43.0
26641;DHT22;14269;47.358;0.724;2024-03-06T02:02:25;14.0;43.0
26641;DHT22;14269;47.358;0.724;2024-03-06T02:04:59;14.0;44.0
26641;DHT22;14269;47.358;0.724;2024-03-06T02:07:40;14.0;44.0
26641;DHT22;14269;47.358;0.724;2024-03-06T02:10:20;14.0;44.0
26641;DHT22;14269;47.358;0.724;2024-03-06T02:12:53;14.0;44.0
26641;DHT22;14269;47.358;0.724;2024-03-06T02:15:24;14.0;44.0
26641;DHT22;14269;47.358;0.724;2024-03-06T02:17:55;14.0;44.0
26641;DHT22;14269;47.358;0.724;2024-03-06T02:20:27;14.0;44.0
26641;DHT22;14269;47.358;0.724;2024-03-06T02:22:59;14.0;43.0
26641;DHT22;14269;47.358;0.724;2024-03-06T02:25:30;14.0;44.0
26641;DHT22;14269;47.358;0.724;2024-03-06T02:28:02;14.0;44.0
26641;DHT22;14269;47.358;0.724;2024-03-06T02:30:36;14.0;45.0
26641;DHT22;14269;47.358;0.724;2024-03-06T02:33:16;14.0;44.0
26641;DHT22;14269;47.358;0.724;2024-03-06T02:35:58;14.0;44.0
26641;DHT22;14269;47.358;0.724;2024-03-06T02:38:39;14.0;43.0
26641;DHT22;14269;47.358;0.724;2024-03-06T02:41:11;14.0;43.0
26641;DHT22;14269;47.358;0.724;2024-03-06T02:43:52;14.0;42.0
26641;DHT22;14269;47.358;0.724;2024-03-06T02:46:24;14.0;42.0
26641;DHT22;14269;47.358;0.724;2024-03-06T02:48:56;14.0;43.0
26641;DHT22;14269;47.358;0.724;2024-03-06T02:51:27;14.0;43.0
26641;DHT22;14269;47.358;0.724;2024-03-06T02:53:59;14.0;43.0
26641;DHT22;14269;47.358;0.724;2024-03-06T02:56:31;14.0;44.0
26641;DHT22;14269;47.358;0.724;2024-03-06T02:59:03;13.0;46.0
26641;DHT22;14269;47.358;0.724;2024-03-06T03:01:44;14.0;45.0
26641;DHT22;14269;47.358;0.724;2024-03-06T03:04:16;14.0;45.0
26641;DHT22;14269;47.358;0.724;2024-03-06T03:06:57;14.0;44.0
26641;DHT22;14269;47.358;0.724;2024-03-06T03:09:29;13.0;46.0
26641;DHT22;14269;47.358;0.724;2024-03-06T03:12:01;13.0;46.0
26641;DHT22;14269;47.358;0.724;2024-03-06T03:14:32;13.0;48.0
26641;DHT22;14269;47.358;0.724;2024-03-06T03:17:05;13.0;47.0
26641;DHT22;14269;47.358;0.724;2024-03-06T03:19:46;13.0;46.0
26641;DHT22;14269;47.358;0.724;2024-03-06T03:22:18;13.0;46.0
26641;DHT22;14269;47.358;0.724;2024-03-06T03:24:49;13.0;46.0
26641;DHT22;14269;47.358;0.724;2024-03-06T03:27:21;13.0;46.0
26641;DHT22;14269;47.358;0.724;2024-03-06T03:30:04;14.0;45.0
26641;DHT22;14269;47.358;0.724;2024-03-06T03:32:45;13.0;45.0
26641;DHT22;14269;47.358;0.724;2024-03-06T03:35:16;13.0;45.0
26641;DHT22;14269;47.358;0.724;2024-03-06T03:37:47;13.0;45.0
26641;DHT22;14269;47.358;0.724;2024-03-06T03:40:19;13.0;45.0
26641;DHT22;14269;47.358;0.724;2024-03-06T03:42:51;13.0;45.0
26641;DHT22;14269;47.358;0.724;2024-03-06T03:45:22;13.0;46.0
26641;DHT22;14269;47.358;0.724;2024-03-06T03:47:54;13.0;46.0
26641;DHT22;14269;47.358;0.724;2024-03-06T03:50:26;13.0;47.0
26641;DHT22;14269;47.358;0.724;2024-03-06T03:52:58;13.0;46.0
26641;DHT22;14269;47.358;0.724;2024-03-06T03:55:39;13.0;46.0
26641;DHT22;14269;47.358;0.724;2024-03-06T03:58:11;13.0;45.0
26641;DHT22;14269;47.358;0.724;2024-03-06T04:00:42;13.0;45.0
26641;DHT22;14269;47.358;0.724;2024-03-06T04:03:14;14.0;45.0
26641;DHT22;14269;47.358;0.724;2024-03-06T04:05:47;14.0;44.0
26641;DHT22;14269;47.358;0.724;2024-03-06T04:08:17;14.0;44.0
26641;DHT22;14269;47.358;0.724;2024-03-06T04:10:49;14.0;43.0
26641;DHT22;14269;47.358;0.724;2024-03-06T04:13:21;14.0;43.0
26641;DHT22;14269;47.358;0.724;2024-03-06T04:15:52;14.0;43.0
26641;DHT22;14269;47.358;0.724;2024-03-06T04:18:24;14.0;43.0
26641;DHT22;14269;47.358;0.724;2024-03-06T04:20:55;14.0;42.0
26641;DHT22;14269;47.358;0.724;2024-03-06T04:23:27;14.0;42.0
26641;DHT22;14269;47.358;0.724;2024-03-06T04:25:59;14.0;42.0
26641;DHT22;14269;47.358;0.724;2024-03-06T04:28:30;14.0;42.0
26641;DHT22;14269;47.358;0.724;2024-03-06T04:31:02;13.0;42.0
26641;DHT22;14269;47.358;0.724;2024-03-06T04:33:34;14.0;42.0
26641;DHT22;14269;47.358;0.724;2024-03-06T04:36:06;13.0;42.0
26641;DHT22;14269;47.358;0.724;2024-03-06T04:38:47;13.0;43.0
26641;DHT22;14269;47.358;0.724;2024-03-06T04:41:19;13.0;43.0
26641;DHT22;14269;47.358;0.724;2024-03-06T04:43:51;13.0;43.0
26641;DHT22;14269;47.358;0.724;2024-03-06T04:46:32;14.0;43.0
26641;DHT22;14269;47.358;0.724;2024-03-06T04:49:04;14.0;42.0
26641;DHT22;14269;47.358;0.724;2024-03-06T04:51:35;14.0;42.0
26641;DHT22;14269;47.358;0.724;2024-03-06T04:54:08;14.0;41.0
26641;DHT22;14269;47.358;0.724;2024-03-06T04:56:49;13.0;41.0
26641;DHT22;14269;47.358;0.724;2024-03-06T04:59:20;13.0;41.0
26641;DHT22;14269;47.358;0.724;2024-03-06T05:01:52;13.0;42.0
26641;DHT22;14269;47.358;0.724;2024-03-06T05:04:24;13.0;43.0
26641;DHT22;14269;47.358;0.724;2024-03-06T05:06:56;12.0;44.0
26641;DHT22;14269;47.358;0.724;2024-03-06T05:09:27;13.0;44.0
26641;DHT22;14269;47.358;0.724;2024-03-06T05:11:59;12.0;44.0
26641;DHT22;14269;47.358;0.724;2024-03-06T05:14:30;13.0;44.0
26641;DHT22;14269;47.358;0.724;2024-03-06T05:17:03;13.0;44.0
26641;DHT22;14269;47.358;0.724;2024-03-06T05:19:34;13.0;44.0
26641;DHT22;14269;47.358;0.724;2024-03-06T05:22:05;13.0;44.0
26641;DHT22;14269;47.358;0.724;2024-03-06T05:24:37;13.0;44.0
26641;DHT22;14269;47.358;0.724;2024-03-06T05:27:09;13.0;44.0
26641;DHT22;14269;47.358;0.724;2024-03-06T05:29:51;13.0;44.0
26641;DHT22;14269;47.358;0.724;2024-03-06T05:32:32;13.0;44.0
26641;DHT22;14269;47.358;0.724;2024-03-06T05:35:05;13.0;43.0
26641;DHT22;14269;47.358;0.724;2024-03-06T05:37:45;14.0;42.0
26641;DHT22;14269;47.358;0.724;2024-03-06T05:40:17;14.0;42.0
26641;DHT22;14269;47.358;0.724;2024-03-06T05:42:49;14.0;41.0
26641;DHT22;14269;47.358;0.724;2024-03-06T05:45:20;13.0;41.0
26641;DHT22;14269;47.358;0.724;2024-03-06T05:47:52;13.0;40.0
26641;DHT22;14269;47.358;0.724;2024-03-06T05:50:24;13.0;40.0
26641;DHT22;14269;47.358;0.724;2024-03-06T05:53:05;13.0;40.0
26641;DHT22;14269;47.358;0.724;2024-03-06T05:55:37;13.0;40.0
26641;DHT22;14269;47.358;0.724;2024-03-06T05:58:09;13.0;41.0
26641;DHT22;14269;47.358;0.724;2024-03-06T06:00:41;13.0;42.0
26641;DHT22;14269;47.358;0.724;2024-03-06T06:03:12;12.0;43.0
26641;DHT22;14269;47.358;0.724;2024-03-06T06:05:44;12.0;44.0
26641;DHT22;14269;47.358;0.724;2024-03-06T06:08:15;12.0;45.0
26641;DHT22;14269;47.358;0.724;2024-03-06T06:10:47;12.0;46.0
26641;DHT22;14269;47.358;0.724;2024-03-06T06:13:19;12.0;46.0
26641;DHT22;14269;47.358;0.724;2024-03-06T06:15:50;12.0;46.0
26641;DHT22;14269;47.358;0.724;2024-03-06T06:18:22;12.0;47.0
26641;DHT22;14269;47.358;0.724;2024-03-06T06:20:54;12.0;47.0
26641;DHT22;14269;47.358;0.724;2024-03-06T06:23:25;12.0;47.0
26641;DHT22;14269;47.358;0.724;2024-03-06T06:25:57;12.0;46.0
26641;DHT22;14269;47.358;0.724;2024-03-06T06:28:29;13.0;45.0
26641;DHT22;14269;47.358;0.724;2024-03-06T06:31:00;13.0;45.0
26641;DHT22;14269;47.358;0.724;2024-03-06T06:33:32;13.0;45.0
26641;DHT22;14269;47.358;0.724;2024-03-06T06:36:04;13.0;44.0
26641;DHT22;14269;47.358;0.724;2024-03-06T06:38:35;13.0;44.0
26641;DHT22;14269;47.358;0.724;2024-03-06T06:41:07;13.0;44.0
26641;DHT22;14269;47.358;0.724;2024-03-06T06:43:39;14.0;43.0
26641;DHT22;14269;47.358;0.724;2024-03-06T06:46:21;14.0;43.0
26641;DHT22;14269;47.358;0.724;2024-03-06T06:48:52;13.0;42.0
26641;DHT22;14269;47.358;0.724;2024-03-06T06:51:23;13.0;42.0
26641;DHT22;14269;47.358;0.724;2024-03-06T06:53:55;14.0;42.0
26641;DHT22;14269;47.358;0.724;2024-03-06T06:56:27;14.0;42.0
26641;DHT22;14269;47.358;0.724;2024-03-06T06:58:59;14.0;41.0
26641;DHT22;14269;47.358;0.724;2024-03-06T07:01:40;14.0;41.0
26641;DHT22;14269;47.358;0.724;2024-03-06T07:04:12;14.0;40.0
26641;DHT22;14269;47.358;0.724;2024-03-06T07:06:43;14.0;40.0
26641;DHT22;14269;47.358;0.724;2024-03-06T07:09:15;14.0;40.0
26641;DHT22;14269;47.358;0.724;2024-03-06T07:11:48;14.0;40.0
26641;DHT22;14269;47.358;0.724;2024-03-06T07:14:28;13.0;41.0
26641;DHT22;14269;47.358;0.724;2024-03-06T07:17:00;14.0;41.0
26641;DHT22;14269;47.358;0.724;2024-03-06T07:19:32;14.0;41.0
26641;DHT22;14269;47.358;0.724;2024-03-06T07:22:03;13.0;42.0
26641;DHT22;14269;47.358;0.724;2024-03-06T07:24:35;14.0;42.0
26641;DHT22;14269;47.358;0.724;2024-03-06T07:27:18;13.0;42.0
26641;DHT22;14269;47.358;0.724;2024-03-06T07:29:59;13.0;44.0
26641;DHT22;14269;47.358;0.724;2024-03-06T07:32:30;13.0;45.0
26641;DHT22;14269;47.358;0.724;2024-03-06T07:35:02;13.0;45.0
26641;DHT22;14269;47.358;0.724;2024-03-06T07:37:33;13.0;45.0
26641;DHT22;14269;47.358;0.724;2024-03-06T07:40:07;13.0;45.0
26641;DHT22;14269;47.358;0.724;2024-03-06T07:42:47;14.0;45.0
26641;DHT22;14269;47.358;0.724;2024-03-06T07:45:20;15.0;43.0
26641;DHT22;14269;47.358;0.724;2024-03-06T07:48:00;14.0;43.0
26641;DHT22;14269;47.358;0.724;2024-03-06T07:50:32;14.0;43.0
26641;DHT22;14269;47.358;0.724;2024-03-06T07:53:04;15.0;43.0
26641;DHT22;14269;47.358;0.724;2024-03-06T07:55:35;15.0;43.0
26641;DHT22;14269;47.358;0.724;2024-03-06T07:58:08;15.0;43.0
26641;DHT22;14269;47.358;0.724;2024-03-06T08:00:49;14.0;44.0
26641;DHT22;14269;47.358;0.724;2024-03-06T08:03:20;15.0;43.0
26641;DHT22;14269;47.358;0.724;2024-03-06T08:05:52;15.0;42.0
26641;DHT22;14269;47.358;0.724;2024-03-06T08:08:24;16.0;42.0
26641;DHT22;14269;47.358;0.724;2024-03-06T08:10:55;15.0;42.0
26641;DHT22;14269;47.358;0.724;2024-03-06T08:13:27;15.0;43.0
26641;DHT22;14269;47.358;0.724;2024-03-06T08:15:58;16.0;42.0
26641;DHT22;14269;47.358;0.724;2024-03-06T08:18:30;16.0;41.0
26641;DHT22;14269;47.358;0.724;2024-03-06T08:21:12;16.0;41.0
26641;DHT22;14269;47.358;0.724;2024-03-06T08:23:45;16.0;40.0
26641;DHT22;14269;47.358;0.724;2024-03-06T08:26:25;16.0;40.0
26641;DHT22;14269;47.358;0.724;2024-03-06T08:28:57;17.0;40.0
26641;DHT22;14269;47.358;0.724;2024-03-06T08:31:29;17.0;40.0
26641;DHT22;14269;47.358;0.724;2024-03-06T08:34:00;17.0;39.0
26641;DHT22;14269;47.358;0.724;2024-03-06T08:36:32;18.0;38.0
26641;DHT22;14269;47.358;0.724;2024-03-06T08:39:05;18.0;38.0
26641;DHT22;14269;47.358;0.724;2024-03-06T08:41:45;18.0;38.0
26641;DHT22;14269;47.358;0.724;2024-03-06T08:44:17;17.0;38.0
26641;DHT22;14269;47.358;0.724;2024-03-06T08:46:49;18.0;38.0
26641;DHT22;14269;47.358;0.724;2024-03-06T08:49:20;18.0;37.0
26641;DHT22;14269;47.358;0.724;2024-03-06T08:51:52;18.0;37.0
26641;DHT22;14269;47.358;0.724;2024-03-06T08:54:23;19.0;37.0
26641;DHT22;14269;47.358;0.724;2024-03-06T08:56:58;19.0;37.0
26641;DHT22;14269;47.358;0.724;2024-03-06T08:59:37;20.0;36.0
26641;DHT22;14269;47.358;0.724;2024-03-06T09:02:13;20.0;35.0
26641;DHT22;14269;47.358;0.724;2024-03-06T09:04:52;20.0;35.0
26641;DHT22;14269;47.358;0.724;2024-03-06T09:07:37;19.0;36.0
26641;DHT22;14269;47.358;0.724;2024-03-06T09:10:14;19.0;36.0
26641;DHT22;14269;47.358;0.724;2024-03-06T09:12:45;19.0;36.0
26641;DHT22;14269;47.358;0.724;2024-03-06T09:15:18;20.0;35.0
26641;DHT22;14269;47.358;0.724;2024-03-06T09:17:59;21.0;34.0
26641;DHT22;14269;47.358;0.724;2024-03-06T09:20:31;20.0;35.0
26641;DHT22;14269;47.358;0.724;2024-03-06T09:23:12;22.0;33.0
26641;DHT22;14269;47.358;0.724;2024-03-06T09:25:45;22.0;32.0
26641;DHT22;14269;47.358;0.724;2024-03-06T09:28:26;22.0;32.0
26641;DHT22;14269;47.358;0.724;2024-03-06T09:30:57;22.0;31.0
26641;DHT22;14269;47.358;0.724;2024-03-06T09:33:29;23.0;31.0
26641;DHT22;14269;47.358;0.724;2024-03-06T09:36:02;23.0;30.0
26641;DHT22;14269;47.358;0.724;2024-03-06T09:38:42;22.0;32.0
26641;DHT22;14269;47.358;0.724;2024-03-06T09:41:14;24.0;29.0
26641;DHT22;14269;47.358;0.724;2024-03-06T09:43:46;23.0;30.0
26641;DHT22;14269;47.358;0.724;2024-03-06T09:46:17;23.0;30.0
26641;DHT22;14269;47.358;0.724;2024-03-06T09:48:49;24.0;30.0
26641;DHT22;14269;47.358;0.724;2024-03-06T09:51:31;24.0;29.0
26641;DHT22;14269;47.358;0.724;2024-03-06T09:54:03;24.0;29.0
26641;DHT22;14269;47.358;0.724;2024-03-06T09:56:45;24.0;30.0
26641;DHT22;14269;47.358;0.724;2024-03-06T09:59:16;25.0;29.0
26641;DHT22;14269;47.358;0.724;2024-03-06T10:01:50;26.0;28.0
26641;DHT22;14269;47.358;0.724;2024-03-06T10:04:32;27.0;27.0
26641;DHT22;14269;47.358;0.724;2024-03-06T10:07:11;26.0;26.0
26641;DHT22;14269;47.358;0.724;2024-03-06T10:09:46;25.0;28.0
26641;DHT22;14269;47.358;0.724;2024-03-06T10:12:25;27.0;27.0
26641;DHT22;14269;47.358;0.724;2024-03-06T10:15:07;27.0;26.0
26641;DHT22;14269;47.358;0.724;2024-03-06T10:17:49;27.0;25.0
26641;DHT22;14269;47.358;0.724;2024-03-06T10:20:31;24.0;28.0
26641;DHT22;14269;47.358;0.724;2024-03-06T10:23:12;24.0;29.0
26641;DHT22;14269;47.358;0.724;2024-03-06T10:25:43;23.0;31.0
26641;DHT22;14269;47.358;0.724;2024-03-06T10:28:15;24.0;30.0
26641;DHT22;14269;47.358;0.724;2024-03-06T10:31:05;25.0;30.0
26641;DHT22;14269;47.358;0.724;2024-03-06T10:33:38;27.0;28.0
26641;DHT22;14269;47.358;0.724;2024-03-06T10:36:20;26.0;26.0
26641;DHT22;14269;47.358;0.724;2024-03-06T10:38:52;23.0;31.0
26641;DHT22;14269;47.358;0.724;2024-03-06T10:41:34;23.0;31.0
26641;DHT22;14269;47.358;0.724;2024-03-06T10:44:20;22.0;32.0
26641;DHT22;14269;47.358;0.724;2024-03-06T10:46:59;22.0;32.0
26641;DHT22;14269;47.358;0.724;2024-03-06T10:49:39;22.0;34.0
26641;DHT22;14269;47.358;0.724;2024-03-06T10:52:21;21.0;34.0
26641;DHT22;14269;47.358;0.724;2024-03-06T10:54:52;21.0;34.0
26641;DHT22;14269;47.358;0.724;2024-03-06T10:57:34;21.0;35.0
26641;DHT22;14269;47.358;0.724;2024-03-06T11:00:19;20.0;36.0
26641;DHT22;14269;47.358;0.724;2024-03-06T11:02:58;20.0;37.0
26641;DHT22;14269;47.358;0.724;2024-03-06T11:05:40;20.0;37.0
26641;DHT22;14269;47.358;0.724;2024-03-06T11:08:21;20.0;37.0
26641;DHT22;14269;47.358;0.724;2024-03-06T11:10:52;20.0;37.0
26641;DHT22;14269;47.358;0.724;2024-03-06T11:13:25;20.0;37.0
26641;DHT22;14269;47.358;0.724;2024-03-06T11:16:07;20.0;38.0
26641;DHT22;14269;47.358;0.724;2024-03-06T11:18:47;20.0;37.0
26641;DHT22;14269;47.358;0.724;2024-03-06T11:21:35;20.0;37.0
26641;DHT22;14269;47.358;0.724;2024-03-06T11:24:22;20.0;36.0
26641;DHT22;14269;47.358;0.724;2024-03-06T11:26:59;21.0;35.0
26641;DHT22;14269;47.358;0.724;2024-03-06T11:30:11;20.0;37.0
26641;DHT22;14269;47.358;0.724;2024-03-06T11:32:57;19.0;37.0
26641;DHT22;14269;47.358;0.724;2024-03-06T11:35:59;20.0;36.0
26641;DHT22;14269;47.358;0.724;2024-03-06T11:38:41;22.0;35.0
26641;DHT22;14269;47.358;0.724;2024-03-06T11:41:12;22.0;34.0
26641;DHT22;14269;47.358;0.724;2024-03-06T11:43:44;22.0;33.0
26641;DHT22;14269;47.358;0.724;2024-03-06T11:46:17;22.0;33.0
26641;DHT22;14269;47.358;0.724;2024-03-06T11:48:58;21.0;34.0
26641;DHT22;14269;47.358;0.724;2024-03-06T11:51:29;22.0;34.0
26641;DHT22;14269;47.358;0.724;2024-03-06T11:54:00;22.0;34.0
26641;DHT22;14269;47.358;0.724;2024-03-06T11:56:32;22.0;35.0
26641;DHT22;14269;47.358;0.724;2024-03-06T11:59:06;23.0;33.0
26641;DHT22;14269;47.358;0.724;2024-03-06T12:01:45;22.0;34.0
26641;DHT22;14269;47.358;0.724;2024-03-06T12:04:18;23.0;33.0
26641;DHT22;14269;47.358;0.724;2024-03-06T12:07:00;21.0;36.0
26641;DHT22;14269;47.358;0.724;2024-03-06T12:09:40;21.0;36.0
26641;DHT22;14269;47.358;0.724;2024-03-06T12:12:12;21.0;37.0
26641;DHT22;14269;47.358;0.724;2024-03-06T12:14:55;21.0;35.0
26641;DHT22;14269;47.358;0.724;2024-03-06T12:17:42;20.0;38.0
26641;DHT22;14269;47.358;0.724;2024-03-06T12:20:18;20.0;38.0
26641;DHT22;14269;47.358;0.724;2024-03-06T12:22:50;20.0;37.0
26641;DHT22;14269;47.358;0.724;2024-03-06T12:25:31;22.0;36.0
26641;DHT22;14269;47.358;0.724;2024-03-06T12:28:08;22.0;35.0
26641;DHT22;14269;47.358;0.724;2024-03-06T12:30:44;21.0;36.0
26641;DHT22;14269;47.358;0.724;2024-03-06T12:33:16;20.0;37.0
26641;DHT22;14269;47.358;0.724;2024-03-06T12:35:48;21.0;36.0
26641;DHT22;14269;47.358;0.724;2024-03-06T12:38:39;19.0;39.0
26641;DHT22;14269;47.358;0.724;2024-03-06T12:41:11;20.0;38.0
26641;DHT22;14269;47.358;0.724;2024-03-06T12:43:43;19.0;39.0
26641;DHT22;14269;47.358;0.724;2024-03-06T12:46:14;20.0;37.0
26641;DHT22;14269;47.358;0.724;2024-03-06T12:48:46;21.0;35.0
26641;DHT22;14269;47.358;0.724;2024-03-06T12:51:18;21.0;35.0
26641;DHT22;14269;47.358;0.724;2024-03-06T12:53:51;20.0;36.0
26641;DHT22;14269;47.358;0.724;2024-03-06T12:56:31;21.0;34.0
26641;DHT22;14269;47.358;0.724;2024-03-06T12:59:03;22.0;34.0
26641;DHT22;14269;47.358;0.724;2024-03-06T13:01:35;22.0;34.0
26641;DHT22;14269;47.358;0.724;2024-03-06T13:04:07;22.0;34.0
26641;DHT22;14269;47.358;0.724;2024-03-06T13:06:48;22.0;33.0
26641;DHT22;14269;47.358;0.724;2024-03-06T13:09:19;22.0;33.0
26641;DHT22;14269;47.358;0.724;2024-03-06T13:11:51;23.0;32.0
26641;DHT22;14269;47.358;0.724;2024-03-06T13:14:23;23.0;33.0
26641;DHT22;14269;47.358;0.724;2024-03-06T13:16:54;22.0;32.0
26641;DHT22;14269;47.358;0.724;2024-03-06T13:19:36;22.0;34.0
26641;DHT22;14269;47.358;0.724;2024-03-06T13:22:08;22.0;34.0
26641;DHT22;14269;47.358;0.724;2024-03-06T13:24:39;22.0;33.0
26641;DHT22;14269;47.358;0.724;2024-03-06T13:27:11;22.0;32.0
26641;DHT22;14269;47.358;0.724;2024-03-06T13:29:43;21.0;33.0
26641;DHT22;14269;47.358;0.724;2024-03-06T13:32:14;22.0;33.0
26641;DHT22;14269;47.358;0.724;2024-03-06T13:34:46;21.0;34.0
26641;DHT22;14269;47.358;0.724;2024-03-06T13:37:18;22.0;33.0
26641;DHT22;14269;47.358;0.724;2024-03-06T13:39:50;22.0;33.0
26641;DHT22;14269;47.358;0.724;2024-03-06T13:42:21;23.0;32.0
26641;DHT22;14269;47.358;0.724;2024-03-06T13:44:53;22.0;32.0
26641;DHT22;14269;47.358;0.724;2024-03-06T13:47:25;22.0;33.0
26641;DHT22;14269;47.358;0.724;2024-03-06T13:50:09;21.0;33.0
26641;DHT22;14269;47.358;0.724;2024-03-06T13:52:48;21.0;34.0
26641;DHT22;14269;47.358;0.724;2024-03-06T13:55:19;22.0;33.0
26641;DHT22;14269;47.358;0.724;2024-03-06T13:57:51;24.0;30.0
26641;DHT22;14269;47.358;0.724;2024-03-06T14:00:23;24.0;29.0
26641;DHT22;14269;47.358;0.724;2024-03-06T14:02:54;22.0;32.0
26641;DHT22;14269;47.358;0.724;2024-03-06T14:05:26;23.0;31.0
26641;DHT22;14269;47.358;0.724;2024-03-06T14:07:57;24.0;30.0
26641;DHT22;14269;47.358;0.724;2024-03-06T14:10:33;24.0;29.0
26641;DHT22;14269;47.358;0.724;2024-03-06T14:13:11;23.0;30.0
26641;DHT22;14269;47.358;0.724;2024-03-06T14:15:43;24.0;29.0
26641;DHT22;14269;47.358;0.724;2024-03-06T14:18:24;23.0;30.0
26641;DHT22;14269;47.358;0.724;2024-03-06T14:20:56;23.0;29.0
26641;DHT22;14269;47.358;0.724;2024-03-06T14:23:29;23.0;29.0
26641;DHT22;14269;47.358;0.724;2024-03-06T14:26:09;24.0;27.0
26641;DHT22;14269;47.358;0.724;2024-03-06T14:28:41;24.0;28.0
26641;DHT22;14269;47.358;0.724;2024-03-06T14:31:13;23.0;29.0
26641;DHT22;14269;47.358;0.724;2024-03-06T14:33:46;24.0;28.0
26641;DHT22;14269;47.358;0.724;2024-03-06T14:36:26;24.0;28.0
26641;DHT22;14269;47.358;0.724;2024-03-06T14:38:58;23.0;30.0
26641;DHT22;14269;47.358;0.724;2024-03-06T14:41:29;23.0;29.0
26641;DHT22;14269;47.358;0.724;2024-03-06T14:44:01;23.0;29.0
26641;DHT22;14269;47.358;0.724;2024-03-06T14:46:33;23.0;29.0
26641;DHT22;14269;47.358;0.724;2024-03-06T14:49:04;23.0;29.0
26641;DHT22;14269;47.358;0.724;2024-03-06T14:51:36;24.0;27.0
26641;DHT22;14269;47.358;0.724;2024-03-06T14:54:07;24.0;27.0
26641;DHT22;14269;47.358;0.724;2024-03-06T14:56:40;24.0;28.0
26641;DHT22;14269;47.358;0.724;2024-03-06T14:59:21;24.0;28.0
26641;DHT22;14269;47.358;0.724;2024-03-06T15:01:52;22.0;31.0
26641;DHT22;14269;47.358;0.724;2024-03-06T15:04:24;23.0;29.0
26641;DHT22;14269;47.358;0.724;2024-03-06T15:06:56;25.0;26.0
26641;DHT22;14269;47.358;0.724;2024-03-06T15:09:28;25.0;26.0
26641;DHT22;14269;47.358;0.724;2024-03-06T15:12:00;26.0;24.0
26641;DHT22;14269;47.358;0.724;2024-03-06T15:14:41;26.0;23.0
26641;DHT22;14269;47.358;0.724;2024-03-06T15:17:12;24.0;26.0
26641;DHT22;14269;47.358;0.724;2024-03-06T15:19:44;24.0;25.0
26641;DHT22;14269;47.358;0.724;2024-03-06T15:22:16;24.0;26.0
26641;DHT22;14269;47.358;0.724;2024-03-06T15:24:47;24.0;27.0
26641;DHT22;14269;47.358;0.724;2024-03-06T15:27:19;24.0;26.0
26641;DHT22;14269;47.358;0.724;2024-03-06T15:29:51;24.0;24.0
26641;DHT22;14269;47.358;0.724;2024-03-06T15:32:22;24.0;26.0
26641;DHT22;14269;47.358;0.724;2024-03-06T15:34:56;25.0;26.0
26641;DHT22;14269;47.358;0.724;2024-03-06T15:37:36;24.0;26.0
26641;DHT22;14269;47.358;0.724;2024-03-06T15:40:10;23.0;27.0
26641;DHT22;14269;47.358;0.724;2024-03-06T15:42:49;23.0;28.0
26641;DHT22;14269;47.358;0.724;2024-03-06T15:45:22;23.0;28.0
26641;DHT22;14269;47.358;0.724;2024-03-06T15:48:03;23.0;28.0
26641;DHT22;14269;47.358;0.724;2024-03-06T15:50:34;23.0;27.0
26641;DHT22;14269;47.358;0.724;2024-03-06T15:53:07;23.0;27.0
26641;DHT22;14269;47.358;0.724;2024-03-06T15:55:48;23.0;28.0
26641;DHT22;14269;47.358;0.724;2024-03-06T15:58:20;23.0;27.0
26641;DHT22;14269;47.358;0.724;2024-03-06T16:01:01;22.0;28.0
26641;DHT22;14269;47.358;0.724;2024-03-06T16:03:33;22.0;28.0
26641;DHT22;14269;47.358;0.724;2024-03-06T16:06:05;22.0;28.0
26641;DHT22;14269;47.358;0.724;2024-03-06T16:08:36;22.0;28.0
26641;DHT22;14269;47.358;0.724;2024-03-06T16:11:08;22.0;28.0
26641;DHT22;14269;47.358;0.724;2024-03-06T16:13:39;22.0;29.0
26641;DHT22;14269;47.358;0.724;2024-03-06T16:16:11;21.0;29.0
26641;DHT22;14269;47.358;0.724;2024-03-06T16:18:43;22.0;29.0
26641;DHT22;14269;47.358;0.724;2024-03-06T16:21:19;22.0;29.0
26641;DHT22;14269;47.358;0.724;2024-03-06T16:23:57;21.0;29.0
26641;DHT22;14269;47.358;0.724;2024-03-06T16:26:38;21.0;31.0
26641;DHT22;14269;47.358;0.724;2024-03-06T16:29:09;21.0;30.0
26641;DHT22;14269;47.358;0.724;2024-03-06T16:31:51;22.0;30.0
26641;DHT22;14269;47.358;0.724;2024-03-06T16:34:24;22.0;29.0
26641;DHT22;14269;47.358;0.724;2024-03-06T16:37:05;21.0;29.0
26641;DHT22;14269;47.358;0.724;2024-03-06T16:39:36;21.0;29.0
26641;DHT22;14269;47.358;0.724;2024-03-06T16:42:08;21.0;29.0
26641;DHT22;14269;47.358;0.724;2024-03-06T16:44:40;21.0;29.0
26641;DHT22;14269;47.358;0.724;2024-03-06T16:47:12;21.0;30.0
26641;DHT22;14269;47.358;0.724;2024-03-06T16:49:43;21.0;30.0
26641;DHT22;14269;47.358;0.724;2024-03-06T16:52:14;21.0;30.0
26641;DHT22;14269;47.358;0.724;2024-03-06T16:54:46;21.0;30.0
26641;DHT22;14269;47.358;0.724;2024-03-06T16:57:18;20.0;31.0
26641;DHT22;14269;47.358;0.724;2024-03-06T16:59:49;20.0;31.0
26641;DHT22;14269;47.358;0.724;2024-03-06T17:02:21;20.0;31.0
26641;DHT22;14269;47.358;0.724;2024-03-06T17:04:53;20.0;31.0
26641;DHT22;14269;47.358;0.724;2024-03-06T17:07:24;20.0;30.0
26641;DHT22;14269;47.358;0.724;2024-03-06T17:09:56;20.0;31.0
26641;DHT22;14269;47.358;0.724;2024-03-06T17:12:27;20.0;31.0
26641;DHT22;14269;47.358;0.724;2024-03-06T17:14:59;19.0;31.0
26641;DHT22;14269;47.358;0.724;2024-03-06T17:17:31;19.0;32.0
26641;DHT22;14269;47.358;0.724;2024-03-06T17:20:03;19.0;32.0
26641;DHT22;14269;47.358;0.724;2024-03-06T17:22:34;19.0;32.0
26641;DHT22;14269;47.358;0.724;2024-03-06T17:25:07;19.0;32.0